Time;durP1;ratioP1;P1;durP2;ratioP2;P2;SDS_P1;SDS_P2;PMS_P1;PMS_P2;Temp;Humidity;BMP_temperature;BMP_pressure;BME280_temperature;BME280_humidity;BME280_pressure;Samples;Min_cycle;Max_cycle;Signal;HPM_P1;HPM_P2
2022/06/01 00:05:06;;;;;;;11.27;4.55;;;;;;;19.50;93.83;100182.22;31351229;28;20514;-80
2022/06/01 00:20:10;;;;;;;10.57;4.15;;;;;;;19.37;94.58;100166.75;31325842;28;20053;-79
2022/06/01 00:35:14;;;;;;;7.03;4.10;;;;;;;19.20;94.74;100162.97;31313617;28;20043;-80
2022/06/01 00:50:23;;;;;;;5.80;3.70;;;;;;;19.12;95.37;100175.63;31301259;28;20055;-80
2022/06/01 01:05:27;;;;;;;8.73;3.63;;;;;;;18.95;94.26;100169.06;31301860;28;20422;-79
2022/06/01 01:20:31;;;;;;;11.60;3.93;;;;;;;18.88;93.82;100161.97;31334970;28;20135;-80
2022/06/01 01:35:34;;;;;;;8.95;3.95;;;;;;;18.74;94.31;100166.19;31287678;28;20084;-80
2022/06/01 01:50:36;;;;;;;7.47;3.67;;;;;;;18.72;94.34;100154.16;31281148;28;20062;-79
2022/06/01 02:06:08;;;;;;;6.18;3.03;;;;;;;18.74;95.27;100151.69;31328684;28;20411;-82
2022/06/01 02:21:17;;;;;;;13.88;3.38;;;;;;;18.87;92.78;100168.69;31322338;28;20053;-82
2022/06/01 02:36:21;;;;;;;5.93;3.22;;;;;;;19.05;91.60;100165.75;31358704;28;20049;-80
2022/06/01 02:51:24;;;;;;;;;;;;;;;19.27;90.98;100172.84;31335045;28;20049;-80
2022/06/01 03:06:25;;;;;;;7.10;3.20;;;;;;;19.38;90.84;100189.53;31337982;28;19924;-79
2022/06/01 03:21:47;;;;;;;7.32;3.28;;;;;;;19.60;89.45;100178.16;31320977;28;20075;-80
2022/06/01 03:36:50;;;;;;;10.70;3.93;;;;;;;20.00;87.48;100171.94;31318082;28;20486;-80
2022/06/01 03:51:52;;;;;;;7.90;4.03;;;;;;;20.35;86.27;100172.59;31323957;28;20049;-81
2022/06/01 04:06:54;;;;;;;5.45;2.50;;;;;;;20.89;83.85;100183.22;31340458;28;20055;-80
2022/06/01 04:21:56;;;;;;;4.80;3.08;;;;;;;21.33;82.12;100188.41;31322121;28;20414;-81
2022/06/01 04:36:58;;;;;;;5.63;2.95;;;;;;;21.88;79.96;100204.63;31350612;28;20132;-83
2022/06/01 04:52:00;;;;;;;9.45;4.63;;;;;;;22.69;76.79;100206.72;31348512;28;20548;-84
2022/06/01 05:07:02;;;;;;;14.10;5.33;;;;;;;23.78;69.79;100207.84;31335513;28;20388;-84
2022/06/01 05:22:04;;;;;;;13.73;3.97;;;;;;;24.42;65.66;100216.97;31360461;28;20625;-83
2022/06/01 05:37:06;;;;;;;13.83;4.50;;;;;;;24.68;63.09;100217.34;31349107;28;20125;-82
2022/06/01 05:52:08;;;;;;;10.83;5.20;;;;;;;25.47;60.52;100207.22;31343646;28;20150;-82
2022/06/01 06:07:10;;;;;;;;;;;;;;;26.20;56.31;100205.72;31314834;28;20375;-78
2022/06/01 06:22:11;;;;;;;16.27;4.53;;;;;;;26.75;55.12;100199.44;31313695;28;20271;-78
2022/06/01 06:37:13;;;;;;;14.57;4.82;;;;;;;27.30;53.30;100207.50;31335638;28;20692;-77
2022/06/01 06:52:15;;;;;;;16.10;6.65;;;;;;;27.77;51.87;100202.13;31314174;28;20117;-76
2022/06/01 07:07:17;;;;;;;19.73;4.97;;;;;;;28.24;49.68;100193.88;31321349;28;20049;-77
2022/06/01 07:22:19;;;;;;;10.35;4.57;;;;;;;28.35;49.51;100198.47;31355696;28;20064;-77
2022/06/01 07:52:42;;;;;;;7.33;3.60;;;;;;;28.85;46.36;100206.50;31322033;28;20057;-76
2022/06/01 08:07:44;;;;;;;13.32;4.07;;;;;;;29.32;45.07;100208.44;31302600;28;20058;-76
2022/06/01 08:22:46;;;;;;;20.55;11.07;;;;;;;30.18;43.91;100201.59;31337314;28;20091;-75
2022/06/01 08:37:49;;;;;;;11.82;4.80;;;;;;;30.67;43.67;100189.47;31317387;28;20051;-77
2022/06/01 08:52:56;;;;;;;11.55;5.93;;;;;;;31.68;40.66;100186.19;31329193;28;20103;-75
2022/06/01 09:08:05;;;;;;;14.90;4.35;;;;;;;32.10;38.44;100204.06;31339919;28;20467;-76
2022/06/01 09:23:15;;;;;;;26.67;7.47;;;;;;;32.80;37.73;100194.78;31352637;28;20495;-75
2022/06/01 09:38:20;;;;;;;17.80;7.68;;;;;;;33.38;35.64;100178.59;31325500;28;20045;-75
2022/06/01 09:53:22;;;;;;;13.45;5.05;;;;;;;33.52;35.77;100188.22;31333424;28;20056;-75
2022/06/01 10:08:29;;;;;;;13.73;5.18;;;;;;;34.58;34.07;100182.69;31327140;28;20133;-76
2022/06/01 10:23:47;;;;;;;15.70;5.43;;;;;;;35.41;32.91;100182.78;31323349;28;20087;-76
2022/06/01 10:38:55;;;;;;;12.73;5.90;;;;;;;36.05;31.39;100178.38;31318359;28;20045;-74
2022/06/01 10:54:26;;;;;;;15.98;6.18;;;;;;;36.48;29.71;100181.44;31329942;28;20052;-80
2022/06/01 11:09:36;;;;;;;14.55;4.60;;;;;;;36.51;29.01;100174.59;31325840;28;20049;-75
2022/06/01 11:24:56;;;;;;;14.10;5.38;;;;;;;33.67;32.39;100159.16;31335514;28;20055;-75
2022/06/01 11:40:01;;;;;;;9.75;5.00;;;;;;;32.50;36.29;100155.59;31325138;28;20041;-76
2022/06/01 11:55:34;;;;;;;9.52;5.20;;;;;;;32.05;37.19;100146.03;31337069;28;20061;-78
2022/06/01 12:10:56;;;;;;;11.98;4.90;;;;;;;31.72;38.48;100141.66;31331948;28;20065;-75
2022/06/01 12:41:27;;;;;;;13.45;5.22;;;;;;;31.43;39.01;100125.03;31317233;28;20052;-75
2022/06/01 12:56:30;;;;;;;11.18;4.88;;;;;;;31.49;37.97;100091.94;31254839;28;20062;-79
2022/06/01 13:11:34;;;;;;;11.95;4.07;;;;;;;31.51;37.99;100072.47;31171919;28;20049;-74
2022/06/01 13:26:54;;;;;;;13.52;4.38;;;;;;;31.83;37.25;100057.06;31169583;28;22297;-76
2022/06/01 13:42:00;;;;;;;11.63;4.95;;;;;;;32.09;36.99;100034.09;31172633;28;20057;-77
2022/06/01 13:57:16;;;;;;;29.80;6.13;;;;;;;31.96;40.31;100048.38;31257214;28;20061;-77
2022/06/01 14:12:19;;;;;;;11.50;4.40;;;;;;;30.64;43.30;100084.13;31328047;28;20052;-77
2022/06/01 14:42:42;;;;;;;8.13;3.03;;;;;;;29.08;41.36;100085.81;31348263;28;20100;-81
2022/06/01 14:57:44;;;;;;;9.35;3.13;;;;;;;28.99;42.79;100059.13;31311276;28;20061;-77
2022/06/01 15:12:46;;;;;;;11.40;3.85;;;;;;;29.27;42.98;100105.91;31205284;28;20048;-77
2022/06/01 15:27:48;;;;;;;8.82;4.15;;;;;;;29.02;43.95;100113.16;31216238;28;20045;-81
2022/06/01 15:42:50;;;;;;;17.00;4.88;;;;;;;27.95;48.16;100123.16;31230079;28;20059;-80
2022/06/01 15:57:53;;;;;;;9.45;3.05;;;;;;;27.04;49.30;100155.22;31279789;28;20083;-78
2022/06/01 16:12:55;;;;;;;5.63;2.38;;;;;;;26.75;50.35;100134.63;31335360;28;20068;-73
2022/06/01 16:27:57;;;;;;;8.05;2.40;;;;;;;25.61;54.96;100154.53;31343695;28;20055;-76
2022/06/01 16:43:01;;;;;;;4.47;1.88;;;;;;;23.67;72.56;100205.81;31358693;28;20057;-77
2022/06/01 16:58:03;;;;;;;6.43;2.47;;;;;;;22.97;82.12;100209.59;31310246;28;20053;-74
2022/06/01 17:13:05;;;;;;;9.63;2.80;;;;;;;23.19;87.11;100225.47;31307123;28;20075;-75
2022/06/01 17:28:08;;;;;;;6.87;2.30;;;;;;;22.76;85.79;100318.94;31314847;28;20055;-74
2022/06/01 17:43:10;;;;;;;10.83;2.77;;;;;;;21.86;85.09;100375.69;31350074;28;20064;-75
2022/06/01 17:58:14;;;;;;;7.80;3.83;;;;;;;19.75;100.00;100366.16;31341553;28;20053;-79
2022/06/01 18:13:16;;;;;;;;;;;;;;;19.39;100.00;100395.50;31290714;28;20041;-75
2022/06/01 18:28:21;;;;;;;5.97;2.65;;;;;;;19.23;100.00;100349.16;31326718;28;19927;-76
2022/06/01 18:43:24;;;;;;;8.50;2.40;;;;;;;19.29;100.00;100347.28;31329648;28;20096;-76
2022/06/01 18:58:29;;;;;;;6.07;2.80;;;;;;;19.30;100.00;100334.28;31347656;28;20630;-75
2022/06/01 19:13:31;;;;;;;9.40;3.15;;;;;;;19.39;100.00;100482.81;31350513;28;20060;-77
2022/06/01 19:28:37;;;;;;;6.00;2.90;;;;;;;19.15;100.00;100397.53;31366522;28;20072;-78
2022/06/01 19:59:01;;;;;;;0.22;0.22;;;;;;;18.02;100.00;100283.63;31351665;28;20047;-78
2022/06/01 20:14:03;;;;;;;0.20;0.20;;;;;;;17.88;100.00;100267.06;31337281;28;20953;-79
2022/06/01 20:29:05;;;;;;;0.28;0.20;;;;;;;17.98;100.00;100252.81;31332394;28;20053;-76
2022/06/01 20:44:11;;;;;;;0.20;0.20;;;;;;;18.27;100.00;100276.16;31311227;28;20111;-76
2022/06/01 20:59:14;;;;;;;0.30;0.30;;;;;;;18.17;100.00;100256.25;31330304;28;20053;-75
2022/06/01 21:14:16;;;;;;;0.35;0.35;;;;;;;18.44;100.00;100247.03;31327934;28;20055;-76
2022/06/01 21:29:18;;;;;;;0.10;0.10;;;;;;;18.80;100.00;100237.81;31293823;28;20046;-76
2022/06/01 21:44:20;;;;;;;0.20;0.20;;;;;;;19.06;100.00;100251.78;31346238;28;20052;-75
2022/06/01 21:59:22;;;;;;;0.05;0.05;;;;;;;19.20;100.00;100248.28;31270844;28;20099;-76
2022/06/01 22:14:24;;;;;;;4.50;2.10;;;;;;;19.22;100.00;100226.56;31224588;28;20055;-75
2022/06/01 22:29:33;;;;;;;9.50;2.10;;;;;;;19.55;100.00;100239.38;31206182;28;20522;-77
2022/06/01 22:44:56;;;;;;;5.85;1.77;;;;;;;19.76;100.00;100263.00;31197375;28;20056;-76
2022/06/01 22:59:59;;;;;;;;;;;;;;;20.10;100.00;100269.75;31306926;28;20400;-78
2022/06/01 23:15:03;;;;;;;5.45;2.00;;;;;;;20.49;100.00;100305.41;31356592;28;20396;-77
2022/06/01 23:30:05;;;;;;;20.77;6.80;;;;;;;19.45;100.00;100348.81;31323608;28;20041;-77
2022/06/01 23:45:22;;;;;;;29.67;10.40;;;;;;;19.35;100.00;100366.66;31377455;28;20057;-75
